createdAt,value
2022-08-21T07:41:29.539Z,9.05
2022-08-21T07:43:58.277Z,9.00
2022-08-21T07:46:25.791Z,8.95
2022-08-21T07:48:53.707Z,9.65
2022-08-21T07:51:23.826Z,9.30
2022-08-21T07:53:54.457Z,9.00
2022-08-21T07:56:22.629Z,10.00
2022-08-21T07:58:50.112Z,9.20
2022-08-21T08:01:17.279Z,9.65
2022-08-21T08:03:44.107Z,9.30
2022-08-21T08:06:13.337Z,9.73
2022-08-21T08:08:41.724Z,9.20
2022-08-21T08:11:11.877Z,9.20
2022-08-21T08:13:49.489Z,8.98
2022-08-21T08:16:17.405Z,9.25
2022-08-21T08:18:45.652Z,9.25
2022-08-21T08:21:13.726Z,9.27
2022-08-21T08:23:40.562Z,9.50
2022-08-21T08:26:07.819Z,9.20
2022-08-21T08:28:35.098Z,9.30
2022-08-21T08:31:02.054Z,9.52
2022-08-21T08:33:29.217Z,9.13
2022-08-21T08:35:56.405Z,9.55
2022-08-21T08:38:25.722Z,8.98
2022-08-21T08:41:19.999Z,8.70
2022-08-21T08:44:00.759Z,9.38
2022-08-21T08:46:36.173Z,9.30
2022-08-21T08:49:18.822Z,9.25
2022-08-21T08:52:03.193Z,9.27
2022-08-21T08:54:35.951Z,8.93
2022-08-21T08:57:08.418Z,8.77
2022-08-21T08:59:44.147Z,9.38
2022-08-21T09:02:13.901Z,9.05
2022-08-21T09:04:41.580Z,9.13
2022-08-21T09:07:25.798Z,9.35
2022-08-21T09:10:04.602Z,8.73
2022-08-21T09:12:39.948Z,9.10
2022-08-21T09:15:23.607Z,9.02
2022-08-21T09:18:29.156Z,9.45
2022-08-21T09:21:01.589Z,9.77
2022-08-21T09:23:46.191Z,9.63
2022-08-21T09:26:14.771Z,9.05
2022-08-21T09:28:44.912Z,9.25
2022-08-21T09:31:30.198Z,9.38
2022-08-21T09:34:09.466Z,9.70
2022-08-21T09:36:40.835Z,9.20
2022-08-21T09:39:09.143Z,9.02
2022-08-21T09:41:37.591Z,9.45
2022-08-21T09:44:06.783Z,9.18
2022-08-21T09:46:34.241Z,9.18
2022-08-21T09:49:04.186Z,9.27
2022-08-21T09:51:37.762Z,8.60
2022-08-21T09:54:07.776Z,9.10
2022-08-21T09:57:14.013Z,8.80
2022-08-21T09:59:41.574Z,8.55
2022-08-21T10:02:32.309Z,8.95
2022-08-21T10:14:12.337Z,8.68
2022-08-21T10:16:45.196Z,8.77
2022-08-21T10:19:34.065Z,8.68
2022-08-21T10:22:37.715Z,8.60
2022-08-21T10:25:37.072Z,8.45
2022-08-21T10:28:15.757Z,8.63
2022-08-21T10:31:08.730Z,8.40
2022-08-21T10:33:52.941Z,8.57
2022-08-21T10:36:37.704Z,8.40
2022-08-21T10:39:35.249Z,8.75
2022-08-21T10:42:17.942Z,8.30
2022-08-21T10:44:50.452Z,8.45
2022-08-21T10:47:35.940Z,8.60
2022-08-21T10:50:30.515Z,8.50
2022-08-21T10:53:23.767Z,8.45
2022-08-21T10:56:20.403Z,8.90
2022-08-21T10:59:21.415Z,8.80
2022-08-21T11:01:54.549Z,8.55
2022-08-21T11:04:35.958Z,8.80
2022-08-21T11:07:35.328Z,8.98
2022-08-21T11:10:17.845Z,8.38
2022-08-21T11:12:53.210Z,8.13
2022-08-21T11:15:51.117Z,9.02
2022-08-21T11:18:58.960Z,8.52
2022-08-21T11:21:46.906Z,8.45
2022-08-21T11:24:40.240Z,8.70
2022-08-21T11:27:39.036Z,8.88
2022-08-21T11:30:08.227Z,8.98
2022-08-21T11:32:47.406Z,8.80
2022-08-21T11:35:34.199Z,9.10
2022-08-21T11:38:20.466Z,8.60
2022-08-21T11:40:55.365Z,9.00
2022-08-21T11:43:42.321Z,8.20
2022-08-21T11:46:39.675Z,8.50
2022-08-21T11:49:32.419Z,8.27
2022-08-21T11:52:29.445Z,8.30
2022-08-21T11:55:13.638Z,8.32
2022-08-21T11:57:51.755Z,8.00
2022-08-21T12:00:26.023Z,8.52
2022-08-21T12:02:57.470Z,8.68
2022-08-21T12:05:56.060Z,8.30
2022-08-21T12:08:31.700Z,8.30
2022-08-21T12:11:11.283Z,8.80
2022-08-21T12:14:13.537Z,8.65
2022-08-21T12:16:49.445Z,8.57
2022-08-21T12:19:22.422Z,8.80
2022-08-21T12:22:00.821Z,9.00
2022-08-21T12:24:33.854Z,9.07
